< Typhoon 199411 1994 Season Typhoon 199413 >
Typhoon 199412 (CAITLIN)
General InformationTrack Information on Google MapsDetailed Wind InformationList of All Images || Disaster Info.ResourceGoogle EarthGE AnimationAtom FeedGeoJSON
Detalied Best Track (Time Zone = UTC)
Year Month Day Hour Lat. Long. Pressure (hPa) Wind (kt) Class Image Chart
1994 8 1 06 19.0 129.0 1004 0 2 Image Chart
1994 8 1 12 19.0 128.5 1004 0 2 Image Chart
1994 8 1 18 19.3 127.5 1004 0 2 Image Chart
1994 8 2 00 19.7 126.5 1002 0 2 Image Chart
1994 8 2 06 20.0 125.7 1000 0 2 Image Chart
1994 8 2 12 20.2 125.0 998 35 3 Image Chart
1994 8 2 18 20.5 124.3 994 40 3 Image Chart
1994 8 3 00 21.0 123.5 990 45 3 Image Chart
1994 8 3 03 21.7 122.7 990 45 3 Image Chart
1994 8 3 06 22.7 121.9 990 45 3 Image Chart
1994 8 3 09 23.1 121.3 992 40 3 Image Chart
1994 8 3 12 23.6 120.0 992 40 3 Image Chart
1994 8 3 15 23.6 119.3 992 40 3 Image Chart
1994 8 3 18 23.6 118.7 992 40 3 Image Chart
1994 8 4 00 24.2 117.6 992 40 3 Image Chart
1994 8 4 06 25.0 117.0 994 35 3 Image Chart
1994 8 4 12 25.5 116.0 994 0 2 Image Chart
1994 8 4 18 26.0 115.0 996 0 2 Image Chart
1994 8 5 00 26.5 114.0 996 0 2 Image Chart
1994 8 5 06 27.0 113.0 996 0 2 Image Chart
1994 8 5 12 27.3 112.5 998 0 2 Image Chart
1994 8 5 18 27.6 112.0 998 0 2 Image Chart
1994 8 6 00 28.0 111.5 998 0 2 Image Chart
Japan Meteorological Agency Best Track Data | Correction Date : 1995-01-30
< Typhoon 199411 1994 Season Typhoon 199413 >

Help